Flight Track Log - Related Links

Times and Time Zones

All times are in EDT time to prevent confusion due to time zone crossing. See the HPK1812 flight status page for this flight to view local times or setup timezone preferences in your user account.

Time Position Orientation Groundspeed Altitude Reporting Facility
EDT Latitude Longitude Course Direction KTS MPH feet Rate Location/Type
Wed 07:26:08 PM 42.4500 -71.3000 270° West 94 108 1,000  Level KA90
Wed 07:26:27 PM 42.4500 -71.3167 270° West 93 107 1,300 1,125 Climbing KA90
Wed 07:27:28 PM 42.4333 -71.3333 216° Southwest 95 109 2,500 1,091 Climbing KA90
Wed 07:28:28 PM 42.4000 -71.3500 200° South 94 108 3,500 1,050 Climbing KA90
Wed 07:29:28 PM 42.3833 -71.3500 180° South 91 105 4,600 950 Climbing KA90
Wed 07:30:28 PM 42.3500 -71.3500 180° South 108 124 5,400 700 Climbing KA90
Wed 07:31:28 PM 42.3167 -71.3333 160° South 127 146 6,000 288 Climbing KA90
Wed 07:32:33 PM 42.2833 -71.3500 200° South 141 162 6,000  Level KA90
Wed 07:33:34 PM 42.2500 -71.3833 217° Southwest 122 140 6,000  Level KA90
Wed 07:34:34 PM 42.2500 -71.4333 270° West 120 138 6,000 221 Level KA90
Wed 07:35:50 PM 42.2317 -71.4867 245° Southwest 115 132 6,500 438 Climbing Boston Center
Wed 07:36:51 PM 42.2217 -71.5317 253° West 116 133 7,000 496 Climbing Boston Center
Wed 07:37:51 PM 42.2117 -71.5739 252° West 120 138 7,500 519 Climbing Boston Center
Wed 07:38:35 PM 42.2078 -71.6019 259° West 122 140 7,900 486 Climbing Boston Center
Wed 07:39:05 PM 42.2017 -71.6272 252° West 122 140 8,100 132 Climbing Boston Center
Wed 07:40:06 PM 42.1789 -71.6642 230° Southwest 154 177 8,100  Level Boston Center
Wed 07:41:06 PM 42.1375 -71.6925 207° Southwest 163 188 8,100  Level Boston Center
Wed 07:42:07 PM 42.0958 -71.7128 200° South 161 185 8,100  Level Boston Center
Wed 07:43:08 PM 42.0544 -71.7356 202° Southwest 163 188 8,100  Level Boston Center
Wed 07:44:08 PM 42.0128 -71.7583 202° Southwest 164 189 8,100  Level Boston Center
Wed 07:45:09 PM 41.9692 -71.7839 204° Southwest 161 185 8,100  Level Boston Center
Wed 07:46:09 PM 41.9256 -71.8039 199° South 163 188 8,100  Level Boston Center
Wed 07:47:10 PM 41.8839 -71.8267 202° Southwest 163 188 8,100  Level Boston Center
Wed 07:48:11 PM 41.8425 -71.8494 202° Southwest 163 188 8,100  Level Boston Center
Wed 07:49:17 PM 41.7967 -71.8747 202° Southwest 167 192 8,100  Level Boston Center
Wed 07:50:18 PM 41.7467 -71.9003 201° Southwest 169 194 8,100  Level Boston Center
Wed 07:51:19 PM 41.7031 -71.9231 201° Southwest 169 194 8,100  Level Boston Center
Wed 07:52:19 PM 41.6594 -71.9428 199° South 169 194 8,100 -50 Level Boston Center
Wed 07:53:20 PM 41.6158 -71.9681 203° Southwest 171 197 8,000 -50 Descending Boston Center
Wed 07:54:20 PM 41.5722 -71.9933 203° Southwest 171 197 8,000  Level Boston Center
Wed 07:55:21 PM 41.5369 -72.0297 218° Southwest 155 178 8,000  Level Boston Center
Wed 07:56:22 PM 41.5058 -72.0686 223° Southwest 152 175 8,000  Level Boston Center
Wed 07:57:22 PM 41.4744 -72.1047 221° Southwest 153 176 8,000  Level Boston Center
Wed 07:59:15 PM 41.4167 -72.1833 226° Southwest 153 176 8,000  Level New York TRACON
Wed 08:00:15 PM 41.3833 -72.2167 217° Southwest 151 174 8,000  Level New York TRACON
Wed 08:01:15 PM 41.3500 -72.2500 217° Southwest 153 176 8,000  Level New York TRACON
Wed 08:02:15 PM 41.3333 -72.3000 246° West 144 166 8,000  Level New York TRACON
Wed 08:03:15 PM 41.3167 -72.3333 236° Southwest 146 168 8,000  Level New York TRACON
Wed 08:04:15 PM 41.2833 -72.3833 228° Southwest 147 169 8,000  Level New York TRACON
Wed 08:05:15 PM 41.2667 -72.4333 246° West 144 166 8,000  Level New York TRACON
Wed 08:06:16 PM 41.2333 -72.4667 217° Southwest 145 167 8,000  Level New York TRACON
Wed 08:07:16 PM 41.2167 -72.5167 246° West 145 167 8,000  Level New York TRACON
Wed 08:08:16 PM 41.2000 -72.5667 246° West 147 169 8,000  Level New York TRACON
Wed 08:09:16 PM 41.1667 -72.6000 217° Southwest 145 167 8,000 -150 Level New York TRACON
Wed 08:10:16 PM 41.1500 -72.6500 246° West 158 182 7,700 -350 Descending New York TRACON
Wed 08:11:16 PM 41.1167 -72.7000 229° Southwest 152 175 7,300 -450 Descending New York TRACON
Wed 08:12:16 PM 41.1000 -72.7500 246° West 156 180 6,800 -500 Descending New York TRACON
Wed 08:13:16 PM 41.0667 -72.7833 217° Southwest 155 178 6,300 -476 Descending New York TRACON
Wed 08:14:22 PM 41.0333 -72.8500 236° Southwest 156 180 5,800 -496 Descending New York TRACON
Wed 08:15:17 PM 41.0167 -72.8833 236° Southwest 148 170 5,300 -522 Descending New York TRACON
Wed 08:16:17 PM 41.0000 -72.9333 246° West 144 166 4,800 -500 Descending New York TRACON
Wed 08:17:17 PM 40.9667 -72.9667 217° Southwest 137 158 4,300 -500 Descending New York TRACON
Wed 08:18:17 PM 40.9500 -73.0000 237° Southwest 134 154 3,800 -500 Descending New York TRACON
Wed 08:19:17 PM 40.9333 -73.0500 246° West 130 150 3,300 -400 Descending New York TRACON
Wed 08:20:17 PM 40.9167 -73.0833 237° Southwest 127 146 3,000 -143 Descending New York TRACON
Wed 08:21:23 PM 40.9000 -73.1167 237° Southwest 113 130 3,000  Level New York TRACON
Wed 08:22:17 PM 40.8667 -73.1500 217° Southwest 119 137 3,000  Level New York TRACON
Wed 08:23:17 PM 40.8500 -73.1833 237° Southwest 118 136 3,000  Level New York TRACON
Wed 08:24:23 PM 40.8333 -73.2333 246° West 117 135 3,000  Level New York TRACON
Wed 08:25:23 PM 40.8167 -73.2667 237° Southwest 117 135 3,000 -347 Level New York TRACON
Wed 08:26:24 PM 40.8000 -73.3000 237° Southwest 101 116 2,300 -522 Descending New York TRACON
Wed 08:27:18 PM 40.8000 -73.3167 270° West 77 89 2,000 -526 Descending New York TRACON
Wed 08:28:18 PM 40.7833 -73.3500 237° Southwest 98 113 1,300 -500 Descending New York TRACON
Wed 08:29:18 PM 40.7833 -73.3833 270° West 98 113 1,000 -190 Descending New York TRACON
Wed 08:30:24 PM 40.7667 -73.4167 237° Southwest 76 87 900 -250 Descending New York TRACON
Wed 08:31:18 PM 40.7500 -73.4167 180° South 74 85 500 -444 Descending New York TRACON

Login

Don't have an account? Register now (free) for customized features, flight alerts, and more!